createdAt,value
2018-08-25T00:00:39.882Z,16.1
2018-08-25T00:01:29.931Z,16.1
2018-08-25T00:02:19.966Z,16.1
2018-08-25T00:03:10.319Z,16.1
2018-08-25T00:04:00.128Z,16.1
2018-08-25T00:04:50.773Z,16
2018-08-25T00:05:40.521Z,16.1
2018-08-25T00:06:30.590Z,16
2018-08-25T00:07:20.653Z,16
2018-08-25T00:08:10.441Z,16
2018-08-25T00:09:00.830Z,15.9
2018-08-25T00:09:50.871Z,16
2018-08-25T00:10:41.487Z,16
2018-08-25T00:11:30.970Z,16
2018-08-25T00:12:21.050Z,16
2018-08-25T00:31:16.753Z,16
2018-08-25T00:32:06.735Z,16
2018-08-25T00:32:56.817Z,16.1
2018-08-25T00:33:47.172Z,16
2018-08-25T00:34:37.221Z,16
2018-08-25T00:35:27.287Z,16.1
2018-08-25T00:36:17.321Z,16
2018-08-25T00:37:07.958Z,16
2018-08-25T00:37:57.760Z,16
2018-08-25T00:38:48.076Z,16.1
2018-08-25T00:39:37.901Z,16.1
2018-08-25T00:40:27.674Z,16.1
2018-08-25T00:41:18.020Z,16.1
2018-08-25T00:42:07.849Z,16.1
2018-08-25T00:42:57.287Z,16
2018-08-25T00:43:48.161Z,16
2018-08-25T00:44:37.731Z,15.9
2018-08-25T00:45:27.762Z,15.9
2018-08-25T00:46:18.380Z,15.9
2018-08-25T00:47:08.458Z,15.9
2018-08-25T00:47:58.698Z,15.9
2018-08-25T00:48:48.334Z,15.9
2018-08-25T00:49:38.413Z,15.9
2018-08-25T00:50:28.716Z,15.8
2018-08-25T00:51:18.518Z,15.8
2018-08-25T00:52:08.275Z,15.8
2018-08-25T00:52:58.349Z,15.8
2018-08-25T00:53:48.725Z,15.8
2018-08-25T00:54:38.192Z,15.8
2018-08-25T00:55:29.139Z,15.8
2018-08-25T00:56:18.908Z,15.8
2018-08-25T00:57:09.243Z,15.8
2018-08-25T00:57:58.983Z,15.8
2018-08-25T00:58:49.108Z,15.8
2018-08-25T00:59:38.889Z,15.8
2018-08-25T01:00:29.233Z,15.8
2018-08-25T01:01:19.276Z,15.7
2018-08-25T01:02:09.637Z,15.7
2018-08-25T01:02:59.121Z,15.7
2018-08-25T01:03:49.457Z,15.7
2018-08-25T01:04:39.543Z,15.7
2018-08-25T01:05:29.616Z,15.8
2018-08-25T01:06:19.388Z,15.8
2018-08-25T01:07:09.966Z,15.8
2018-08-25T01:08:00.145Z,15.8
2018-08-25T01:08:49.594Z,15.8
2018-08-25T01:09:39.932Z,15.8
2018-08-25T01:10:30.299Z,15.7
2018-08-25T01:11:19.767Z,15.6
2018-08-25T01:12:10.198Z,15.6
2018-08-25T01:13:00.206Z,15.6
2018-08-25T01:13:50.269Z,15.6
2018-08-25T01:14:40.344Z,15.6
2018-08-25T01:15:30.238Z,15.7
2018-08-25T01:16:20.440Z,15.6
2018-08-25T01:17:10.537Z,15.7
2018-08-25T01:18:00.556Z,15.6
2018-08-25T01:18:50.921Z,15.6
2018-08-25T01:19:40.433Z,15.6
2018-08-25T01:20:30.810Z,15.5
2018-08-25T01:21:20.276Z,15.4
2018-08-25T01:22:10.896Z,15.4
2018-08-25T01:23:01.503Z,15.4
2018-08-25T01:23:51.288Z,15.4
2018-08-25T01:24:40.814Z,15.5
2018-08-25T01:25:31.475Z,15.5
2018-08-25T01:26:21.241Z,15.4
2018-08-25T01:27:10.999Z,15.4
2018-08-25T01:28:01.071Z,15.4
2018-08-25T01:28:51.135Z,15.4
2018-08-25T01:29:41.212Z,15.4
2018-08-25T01:30:31.819Z,15.4
2018-08-25T01:31:21.605Z,15.4
2018-08-25T01:32:11.770Z,15.4
2018-08-25T01:33:01.758Z,15.4
2018-08-25T01:33:52.079Z,15.4
2018-08-25T01:34:41.568Z,15.4
2018-08-25T01:35:32.246Z,15.4
2018-08-25T01:36:22.009Z,15.5
2018-08-25T01:37:12.087Z,15.4
2018-08-25T01:38:02.413Z,15.5
2018-08-25T01:38:52.201Z,15.4
2018-08-25T01:39:42.587Z,15.5
2018-08-25T01:40:32.319Z,15.6
2018-08-25T01:41:22.389Z,15.5
2018-08-25T01:42:11.915Z,15.6
2018-08-25T01:43:02.827Z,15.6
2018-08-25T01:43:52.595Z,15.6
2018-08-25T01:44:42.969Z,15.6
2018-08-25T01:45:32.990Z,15.5
2018-08-25T01:46:22.769Z,15.5
2018-08-25T01:47:13.143Z,15.5
2018-08-25T01:48:02.890Z,15.5
2018-08-25T01:48:52.650Z,15.5
2018-08-25T01:49:43.053Z,15.5
2018-08-25T01:50:33.139Z,15.5
2018-08-25T01:51:22.610Z,15.5
2018-08-25T01:52:13.531Z,15.5
2018-08-25T01:53:03.013Z,15.5
2018-08-25T01:53:53.361Z,15.5
2018-08-25T01:54:43.715Z,15.5
2018-08-25T01:55:33.761Z,15.5
2018-08-25T01:56:23.568Z,15.5
2018-08-25T01:57:13.918Z,15.5
2018-08-25T01:58:03.432Z,15.5
2018-08-25T01:58:54.069Z,15.5
2018-08-25T01:59:43.816Z,15.5
2018-08-25T02:00:34.137Z,15.5
2018-08-25T02:01:24.247Z,15.4
2018-08-25T02:02:14.016Z,15.4
2018-08-25T02:03:04.386Z,15.4
2018-08-25T02:03:54.387Z,15.4
2018-08-25T02:04:44.213Z,15.5
2018-08-25T02:05:34.249Z,15.4
2018-08-25T02:06:24.639Z,15.5
2018-08-25T02:07:14.135Z,15.6
2018-08-25T02:08:04.472Z,15.5
2018-08-25T02:08:54.828Z,15.5
2018-08-25T02:09:44.945Z,15.4
2018-08-25T02:10:34.152Z,15.4
2018-08-25T02:11:24.730Z,15.4
2018-08-25T02:12:14.493Z,15.4
2018-08-25T02:13:05.163Z,15.4
2018-08-25T02:13:55.432Z,15.4
2018-08-25T02:14:44.693Z,15.4
2018-08-25T02:15:35.024Z,15.4
2018-08-25T02:16:25.416Z,15.4
2018-08-25T02:17:15.170Z,15.4
2018-08-25T02:18:05.232Z,15.4
2018-08-25T02:18:55.567Z,15.4
2018-08-25T02:19:45.106Z,15.4
2018-08-25T02:20:35.412Z,15.4
2018-08-25T02:21:25.486Z,15.4
2018-08-25T02:22:15.837Z,15.4
2018-08-25T02:23:05.911Z,15.4
2018-08-25T02:23:55.700Z,15.4
2018-08-25T02:24:45.737Z,15.4
2018-08-25T02:25:35.262Z,15.3
2018-08-25T02:26:26.177Z,15.3
2018-08-25T02:27:16.239Z,15.3
2018-08-25T02:28:06.708Z,15.3
2018-08-25T02:28:56.103Z,15.3
2018-08-25T02:29:45.873Z,15.2
2018-08-25T02:30:36.225Z,15.2
2018-08-25T02:31:25.662Z,15.2
2018-08-25T02:32:16.629Z,15.2
2018-08-25T02:33:06.417Z,15.1
2018-08-25T02:33:56.770Z,15.2
2018-08-25T02:34:46.547Z,15.2
2018-08-25T02:35:36.861Z,15.2
2018-08-25T02:36:26.662Z,15.2
2018-08-25T02:37:17.020Z,15.3
2018-08-25T02:38:06.538Z,15.2
2018-08-25T02:38:56.298Z,15.2
2018-08-25T02:39:47.166Z,15.2
2018-08-25T02:40:36.811Z,15.2
2018-08-25T02:41:27.071Z,15.2
2018-08-25T02:42:17.703Z,15.2
2018-08-25T02:43:07.184Z,15.2
2018-08-25T02:43:56.981Z,15.3
2018-08-25T02:44:47.324Z,15.3
2018-08-25T02:45:37.735Z,15.3
2018-08-25T02:46:27.738Z,15.2
2018-08-25T02:47:17.783Z,15.1
2018-08-25T02:48:07.590Z,15.2
2018-08-25T02:48:57.610Z,15.1
2018-08-25T02:49:47.687Z,15.1
2018-08-25T02:50:38.068Z,15.1
2018-08-25T02:51:27.643Z,15.1
2018-08-25T02:52:17.873Z,15.1
2018-08-25T02:53:07.948Z,15.1
2018-08-25T02:53:57.738Z,15.1
2018-08-25T02:54:48.307Z,15.1
2018-08-25T02:55:38.435Z,15.1
2018-08-25T02:56:28.511Z,15.1
2018-08-25T02:57:18.561Z,15.1
2018-08-25T02:58:07.496Z,15.1
2018-08-25T02:58:58.408Z,15.1
2018-08-25T02:59:48.513Z,15.1
2018-08-25T03:00:38.544Z,15.1
2018-08-25T03:01:28.623Z,15.1
2018-08-25T03:02:18.668Z,15.1
2018-08-25T03:03:08.741Z,15.1
2018-08-25T03:03:59.080Z,15.1
2018-08-25T03:04:48.853Z,15.1
2018-08-25T03:05:38.663Z,15.1
2018-08-25T03:06:28.985Z,15
2018-08-25T03:07:19.353Z,15
2018-08-25T03:08:09.426Z,15
2018-08-25T03:08:59.461Z,15.1
2018-08-25T03:09:49.548Z,15.1
2018-08-25T03:10:39.595Z,15.1
2018-08-25T03:11:29.390Z,15.1
2018-08-25T03:12:19.718Z,15.1
2018-08-25T03:13:09.493Z,15.1
2018-08-25T03:13:59.908Z,15.1
2018-08-25T03:14:49.360Z,15.1
2018-08-25T03:15:39.110Z,15.1
2018-08-25T03:16:29.787Z,15.1
2018-08-25T03:17:19.847Z,15.1
2018-08-25T03:18:10.170Z,15.1
2018-08-25T03:18:59.695Z,15.1
2018-08-25T03:19:50.035Z,15.1
2018-08-25T03:20:40.174Z,15.1
2018-08-25T03:21:30.163Z,15.1
2018-08-25T03:22:20.199Z,15.1
2018-08-25T03:23:10.608Z,15.1
2018-08-25T03:24:00.691Z,15
2018-08-25T03:24:50.712Z,15
2018-08-25T03:25:40.231Z,15
2018-08-25T03:26:31.345Z,15
2018-08-25T03:27:20.925Z,15.1
2018-08-25T03:28:10.972Z,15.1
2018-08-25T03:29:00.745Z,15.1
2018-08-25T03:29:50.776Z,15.1
2018-08-25T03:30:40.887Z,15.2
2018-08-25T03:31:31.215Z,15.2
2018-08-25T03:32:21.392Z,15.3
2018-08-25T03:33:11.064Z,15.3
2018-08-25T03:34:01.135Z,15.3
2018-08-25T03:34:50.631Z,15.3
2018-08-25T03:35:41.530Z,15.3
2018-08-25T03:36:31.321Z,15.3
2018-08-25T03:37:21.369Z,15.3
2018-08-25T03:38:11.728Z,15.3
2018-08-25T03:39:01.520Z,15.3
2018-08-25T03:39:51.579Z,15.3
2018-08-25T03:40:42.240Z,15.3
2018-08-25T03:41:31.711Z,15.3
2018-08-25T03:42:22.083Z,15.3
2018-08-25T03:43:11.574Z,15.3
2018-08-25T03:44:02.486Z,15.3
2018-08-25T03:44:51.989Z,15.3
2018-08-25T03:45:42.350Z,15.3
2018-08-25T03:46:32.113Z,15.3
2018-08-25T03:47:21.978Z,15.3
2018-08-25T03:48:12.506Z,15.3
2018-08-25T03:49:01.775Z,15.3
2018-08-25T03:49:52.668Z,15.3
2018-08-25T03:50:42.950Z,15.3
2018-08-25T03:51:32.200Z,15.3
2018-08-25T03:52:22.563Z,15.3
2018-08-25T03:53:12.893Z,15.3
2018-08-25T03:54:01.823Z,15.3
2018-08-25T03:54:53.040Z,15.3
2018-08-25T03:55:42.819Z,15.3
2018-08-25T03:56:33.220Z,15.3
2018-08-25T03:57:23.221Z,15.3
2018-08-25T03:58:12.733Z,15.3
2018-08-25T03:59:03.381Z,15.3
2018-08-25T03:59:52.856Z,15.3
2018-08-25T04:00:43.467Z,15.3
2018-08-25T04:01:33.945Z,15.3
2018-08-25T04:02:23.607Z,15.3
2018-08-25T04:03:13.416Z,15.3
2018-08-25T04:04:03.727Z,15.3
2018-08-25T04:04:53.804Z,15.4
2018-08-25T04:05:43.858Z,15.4
2018-08-25T04:06:33.912Z,15.5
2018-08-25T04:07:23.710Z,15.5
2018-08-25T04:08:13.767Z,15.4
2018-08-25T04:09:04.133Z,15.4
2018-08-25T04:09:53.319Z,15.4
2018-08-25T04:10:43.989Z,15.4
2018-08-25T04:11:34.313Z,15.4
2018-08-25T04:12:23.219Z,15.4
2018-08-25T04:13:14.454Z,15.4
2018-08-25T04:14:04.216Z,15.4
2018-08-25T04:14:55.165Z,15.4
2018-08-25T04:15:44.085Z,15.4
2018-08-25T04:16:34.127Z,15.5
2018-08-25T04:17:24.810Z,15.5
2018-08-25T04:18:14.557Z,15.5
2018-08-25T04:19:04.893Z,15.5
2018-08-25T04:19:54.714Z,15.6
2018-08-25T04:20:45.041Z,15.6
2018-08-25T04:21:35.105Z,15.5
2018-08-25T04:22:25.692Z,15.6
2018-08-25T04:23:14.676Z,15.6
2018-08-25T04:24:04.707Z,15.6
2018-08-25T04:24:55.359Z,15.6
2018-08-25T04:25:45.229Z,15.6
2018-08-25T04:26:35.219Z,15.6
2018-08-25T04:27:25.024Z,15.6
2018-08-25T04:28:15.629Z,15.6
2018-08-25T04:29:05.409Z,15.5
2018-08-25T04:29:55.729Z,15.5
2018-08-25T04:30:45.799Z,15.6
2018-08-25T04:31:35.585Z,15.6
2018-08-25T04:32:25.900Z,15.6
2018-08-25T04:33:16.063Z,15.6
2018-08-25T04:34:05.785Z,15.7
2018-08-25T04:34:56.159Z,15.7
2018-08-25T04:35:46.213Z,15.8
2018-08-25T04:36:36.246Z,15.8
2018-08-25T04:37:26.011Z,15.8
2018-08-25T04:38:16.133Z,15.8
2018-08-25T04:39:06.444Z,15.8
2018-08-25T04:39:56.495Z,15.7
2018-08-25T04:40:46.562Z,15.7
2018-08-25T04:41:36.070Z,15.7
2018-08-25T04:42:26.710Z,15.8
2018-08-25T05:00:25.352Z,16.6
2018-08-25T05:01:14.940Z,16.8
2018-08-25T05:02:05.379Z,16.8
2018-08-25T05:02:55.050Z,16.8
2018-08-25T05:03:45.147Z,16.9
2018-08-25T05:04:34.751Z,16.9
2018-08-25T05:05:25.192Z,16.8
2018-08-25T05:06:15.332Z,16.6
2018-08-25T05:07:05.630Z,16.7
2018-08-25T05:07:55.443Z,16.8
2018-08-25T05:08:45.737Z,16.9
2018-08-25T05:10:25.383Z,17.1
2018-08-25T05:11:15.678Z,17.1
2018-08-25T05:12:05.746Z,17.3
2018-08-25T05:12:55.821Z,17.3
2018-08-25T05:13:45.551Z,17.2
2018-08-25T05:14:36.241Z,17.3
2018-08-25T05:15:26.011Z,17.3
2018-08-25T05:16:16.359Z,17.3
2018-08-25T05:17:06.130Z,17.2
2018-08-25T05:17:56.483Z,17.1
2018-08-25T05:18:46.214Z,17.1
2018-08-25T05:19:36.628Z,17.1
2018-08-25T05:20:26.101Z,17.4
2018-08-25T05:21:16.460Z,17.4
2018-08-25T05:22:07.776Z,17.5
2018-08-25T05:22:56.872Z,17.5
2018-08-25T05:23:46.933Z,17.7
2018-08-25T05:24:36.988Z,17.9
2018-08-25T05:25:27.029Z,18
2018-08-25T05:26:17.120Z,18
2018-08-25T05:27:06.613Z,18.1
2018-08-25T05:27:57.248Z,18.2
2018-08-25T05:28:47.294Z,18.1
2018-08-25T05:29:37.392Z,18.1
2018-08-25T05:30:27.152Z,18.1
2018-08-25T05:31:17.213Z,18.1
2018-08-25T05:32:07.590Z,18.1
2018-08-25T05:32:57.640Z,18.4
2018-08-25T05:33:47.692Z,18.6
2018-08-25T05:34:37.507Z,18.6
2018-08-25T05:35:27.264Z,18.8
2018-08-25T05:36:17.907Z,18.9
2018-08-25T05:37:07.634Z,18.9
2018-08-25T05:37:57.455Z,18.9
2018-08-25T05:38:48.339Z,18.9
2018-08-25T05:39:37.860Z,18.8
2018-08-25T05:40:27.648Z,19
2018-08-25T05:41:18.016Z,19.1
2018-08-25T05:42:08.342Z,19.3
2018-08-25T05:42:58.399Z,19.3
2018-08-25T05:43:48.490Z,19.5
2018-08-25T05:44:38.059Z,19.8
2018-08-25T05:45:28.618Z,19.8
2018-08-25T05:46:18.392Z,19.8
2018-08-25T05:47:08.740Z,19.8
2018-08-25T05:47:57.952Z,19.8
2018-08-25T05:48:48.318Z,19.8
2018-08-25T05:49:38.367Z,19.9
2018-08-25T05:50:28.974Z,19.8
2018-08-25T05:51:19.041Z,19.9
2018-08-25T05:52:09.174Z,20.2
2018-08-25T05:52:59.421Z,20.4
2018-08-25T05:53:49.256Z,20.4
2018-08-25T05:54:39.316Z,20.3
2018-08-25T05:55:29.357Z,20.3
2018-08-25T05:56:19.428Z,20.3
2018-08-25T05:57:09.206Z,20.5
2018-08-25T05:57:59.851Z,20.6
2018-08-25T05:58:49.643Z,20.5
2018-08-25T05:59:39.699Z,20.4
2018-08-25T06:00:29.461Z,20.6
2018-08-25T06:01:19.241Z,20.6
2018-08-25T06:02:09.330Z,20.5
2018-08-25T06:02:59.934Z,20.6
2018-08-25T06:03:49.708Z,20.8
2018-08-25T06:04:39.764Z,20.6
2018-08-25T06:05:30.127Z,20.8
2018-08-25T06:06:20.199Z,20.8
2018-08-25T06:07:09.967Z,21.1
2018-08-25T06:08:50.402Z,21.4
2018-08-25T06:09:40.146Z,21.6
2018-08-25T06:10:30.492Z,21.5
2018-08-25T06:11:20.600Z,21.6
2018-08-25T06:12:10.618Z,21.4
2018-08-25T06:13:00.689Z,21.3
2018-08-25T06:13:50.746Z,20.9
2018-08-25T06:14:41.070Z,20.9
2018-08-25T06:15:30.877Z,20.6
2018-08-25T06:16:20.638Z,20.6
2018-08-25T06:17:10.980Z,20.5
2018-08-25T06:18:00.758Z,20.5
2018-08-25T06:18:51.380Z,20.6
2018-08-25T06:19:41.184Z,20.6
2018-08-25T06:20:31.273Z,20.6
2018-08-25T06:21:21.042Z,20.6
2018-08-25T06:22:11.105Z,20.8
2018-08-25T06:23:01.199Z,20.8
2018-08-25T06:24:41.308Z,21.5
2018-08-25T06:25:31.082Z,21.6
2018-08-25T06:26:21.425Z,21.8
2018-08-25T06:27:11.785Z,21.9
2018-08-25T06:28:02.108Z,22
2018-08-25T06:28:52.145Z,22.1
2018-08-25T06:29:42.469Z,22.3
2018-08-25T06:30:32.030Z,22.5
2018-08-25T06:31:21.799Z,22.3
2018-08-25T06:32:11.610Z,22.1
2018-08-25T06:33:02.475Z,22.1
2018-08-25T06:33:51.744Z,22.1
2018-08-25T06:34:42.341Z,22.1
2018-08-25T06:35:32.114Z,22.3
2018-08-25T06:36:22.476Z,22.5
2018-08-25T06:37:12.258Z,22.6
2018-08-25T06:38:02.462Z,22.4
2018-08-25T06:38:52.381Z,22.3
2018-08-25T06:39:42.711Z,22.2
2018-08-25T06:40:33.039Z,22.1
2018-08-25T06:41:22.562Z,22.3
2018-08-25T06:42:12.907Z,22.6
2018-08-25T06:43:02.704Z,22.6
2018-08-25T06:43:52.748Z,22.6
2018-08-25T06:44:42.824Z,22.6
2018-08-25T06:45:32.871Z,22.6
2018-08-25T06:46:23.242Z,22.4
2018-08-25T06:47:13.025Z,22.4
2018-08-25T06:48:03.379Z,22.3
2018-08-25T06:48:53.442Z,22.4
2018-08-25T06:49:43.202Z,22.3
2018-08-25T06:50:33.840Z,22.4
2018-08-25T06:51:23.614Z,22.3
2018-08-25T06:52:13.665Z,22.2
2018-08-25T06:53:03.505Z,21.9
2018-08-25T06:53:53.246Z,21.9
2018-08-25T06:54:42.731Z,22
2018-08-25T06:55:34.200Z,21.9
2018-08-25T06:56:23.728Z,22.1
2018-08-25T06:57:14.072Z,22.1
2018-08-25T06:58:04.168Z,22.1
2018-08-25T06:58:54.233Z,22.3
2018-08-25T06:59:44.272Z,22.2
2018-08-25T07:00:34.338Z,22.3
2018-08-25T07:01:24.389Z,22.1
2018-08-25T07:02:14.153Z,22
2018-08-25T07:03:04.237Z,22.1
2018-08-25T07:03:54.290Z,22.4
2018-08-25T07:04:44.593Z,22.6
2018-08-25T07:05:34.670Z,23
2018-08-25T07:06:24.791Z,23.3
2018-08-25T07:07:14.542Z,23.5
2018-08-25T07:08:04.893Z,23.6
2018-08-25T07:08:54.662Z,23.8
2018-08-25T07:09:45.008Z,24.1
2018-08-25T07:10:34.746Z,24.3
2018-08-25T07:11:24.569Z,24.2
2018-08-25T07:12:14.905Z,24.3
2018-08-25T07:13:05.496Z,24.3
2018-08-25T07:13:55.069Z,24.3
2018-08-25T07:14:45.389Z,23.9
2018-08-25T07:15:35.401Z,23.9
2018-08-25T07:16:24.371Z,24
2018-08-25T07:17:15.577Z,23.9
2018-08-25T07:18:05.633Z,24.3
2018-08-25T07:18:56.126Z,24.4
2018-08-25T07:19:45.518Z,24.6
2018-08-25T07:20:35.307Z,24.8
2018-08-25T07:21:25.899Z,25.1
2018-08-25T07:22:16.019Z,25.1
2018-08-25T07:23:06.066Z,24.7
2018-08-25T07:23:55.838Z,24.4
2018-08-25T07:24:45.919Z,24.4
2018-08-25T07:25:35.601Z,24.5
2018-08-25T07:26:25.588Z,24.3
2018-08-25T07:27:16.082Z,24.2
2018-08-25T07:28:06.420Z,24.4
2018-08-25T07:28:56.464Z,24.6
2018-08-25T07:29:46.049Z,24.3
2018-08-25T07:30:36.572Z,24.3
2018-08-25T07:31:26.634Z,23.9
2018-08-25T07:32:17.738Z,23.9
2018-08-25T07:33:06.802Z,23.4
2018-08-25T07:33:56.603Z,22.8
2018-08-25T07:34:47.204Z,22.6
2018-08-25T07:35:37.008Z,23
2018-08-25T07:36:27.013Z,23
2018-08-25T07:37:16.556Z,23
2018-08-25T07:38:07.331Z,23.3
2018-08-25T07:38:56.675Z,24.1
2018-08-25T07:39:47.040Z,24.4
2018-08-25T07:40:37.394Z,24.9
2018-08-25T07:41:27.504Z,24.9
2018-08-25T07:42:17.270Z,24.6
2018-08-25T07:43:07.590Z,24.6
2018-08-25T07:43:57.659Z,24.4
2018-08-25T07:44:47.475Z,24.1
2018-08-25T07:45:37.483Z,23.9
2018-08-25T07:46:27.265Z,24.1
2018-08-25T07:47:17.608Z,24.5
2018-08-25T07:48:07.956Z,24.6
2018-08-25T07:48:57.481Z,24.6
2018-08-25T07:49:47.806Z,24.6
2018-08-25T07:50:37.861Z,25.1
2018-08-25T07:51:28.470Z,25.5
2018-08-25T07:52:17.670Z,25.5
2018-08-25T07:53:08.387Z,25.1
2018-08-25T07:53:58.435Z,25.1
2018-08-25T07:54:47.912Z,25.7
2018-08-25T07:55:38.527Z,25.9
2018-08-25T07:56:28.295Z,26.1
2018-08-25T07:57:18.613Z,26
2018-08-25T07:58:08.236Z,26.4
2018-08-25T07:58:58.860Z,26.4
2018-08-25T07:59:48.559Z,26.2
2018-08-25T08:00:38.921Z,25.6
2018-08-25T08:01:28.667Z,25.2
2018-08-25T08:02:18.773Z,25.5
2018-08-25T08:03:08.834Z,25.9
2018-08-25T08:03:59.183Z,26.1
2018-08-25T08:04:49.518Z,26.5
2018-08-25T08:05:40.507Z,26.6
2018-08-25T08:06:28.557Z,27.1
2018-08-25T08:07:19.432Z,27.2
2018-08-25T08:08:09.338Z,27.2
2018-08-25T08:08:59.326Z,27.3
2018-08-25T08:09:49.644Z,27.3
2018-08-25T08:10:39.732Z,26.9
2018-08-25T08:11:29.503Z,27
2018-08-25T08:12:20.713Z,27.3
2018-08-25T08:13:09.643Z,27.6
2018-08-25T08:13:59.989Z,27.6
2018-08-25T08:14:49.756Z,27.7
2018-08-25T08:15:40.151Z,27.4
2018-08-25T08:16:30.156Z,27.6
2018-08-25T08:17:19.936Z,27.8
2018-08-25T08:18:09.721Z,27.9
2018-08-25T08:19:00.359Z,27.4
2018-08-25T08:19:50.411Z,27.4
2018-08-25T08:20:40.478Z,27.8
2018-08-25T08:21:29.986Z,27.9
2018-08-25T08:22:19.841Z,28.3
2018-08-25T08:23:10.691Z,28.1
2018-08-25T08:24:00.463Z,27.6
2018-08-25T08:24:50.781Z,27.6
2018-08-25T08:25:40.308Z,28.1
2018-08-25T08:26:30.646Z,28.1
2018-08-25T08:27:20.993Z,28.3
2018-08-25T08:28:11.403Z,28.3
2018-08-25T08:29:00.864Z,28.2
2018-08-25T08:29:51.185Z,28.4
2018-08-25T08:30:40.988Z,28.3
2018-08-25T08:31:31.318Z,28.2
2018-08-25T08:32:21.103Z,27.6
2018-08-25T08:33:12.669Z,27.3
2018-08-25T08:34:01.500Z,27.4
2018-08-25T08:34:51.297Z,27.7
2018-08-25T08:35:41.367Z,27.3
2018-08-25T08:36:31.436Z,27.2
2018-08-25T08:37:22.029Z,27.9
2018-08-25T08:38:11.857Z,28.1
2018-08-25T08:39:01.909Z,28.5
2018-08-25T08:39:51.739Z,28.8
2018-08-25T08:40:42.030Z,29.1
2018-08-25T08:41:32.110Z,29.4
2018-08-25T08:42:23.054Z,29.6
2018-08-25T08:43:11.972Z,29.6
2018-08-25T08:44:02.312Z,29.6
2018-08-25T08:44:52.352Z,29.6
2018-08-25T08:45:42.444Z,29.4
2018-08-25T08:46:32.228Z,29.5
2018-08-25T08:47:22.850Z,29.9
2018-08-25T08:48:12.350Z,29.8
2018-08-25T08:49:02.440Z,29.6
2018-08-25T08:49:52.537Z,29.6
2018-08-25T08:50:42.842Z,30.1
2018-08-25T08:51:33.145Z,30
2018-08-25T08:52:22.956Z,29.6
2018-08-25T08:53:12.439Z,29
2018-08-25T08:54:02.597Z,29.2
2018-08-25T08:54:53.150Z,29.8
2018-08-25T08:55:43.237Z,29.9
2018-08-25T08:56:33.274Z,29.8
2018-08-25T08:57:23.059Z,29.8
2018-08-25T08:58:13.288Z,30
2018-08-25T09:14:56.708Z,31.1
2018-08-25T09:15:46.523Z,31.3
2018-08-25T09:16:36.023Z,30.9
2018-08-25T09:17:26.938Z,30.8
2018-08-25T09:18:17.691Z,30.7
2018-08-25T09:19:07.334Z,31
2018-08-25T09:19:57.392Z,31.1
2018-08-25T09:20:47.165Z,31.2
2018-08-25T09:21:37.517Z,31.1
2018-08-25T09:22:26.748Z,31.1
2018-08-25T09:23:17.699Z,31.1
2018-08-25T09:24:07.742Z,30.9
2018-08-25T09:24:57.814Z,30.6
2018-08-25T09:25:47.861Z,30.3
2018-08-25T09:26:37.360Z,29.3
2018-08-25T09:27:28.381Z,28.9
2018-08-25T09:28:18.063Z,28.4
2018-08-25T09:29:08.142Z,28.3
2018-08-25T09:29:57.928Z,28.3
2018-08-25T09:30:48.264Z,28.2
2018-08-25T09:31:38.316Z,28.5
2018-08-25T09:32:28.115Z,28.4
2018-08-25T09:33:18.181Z,28.2
2018-08-25T09:34:08.259Z,29.3
2018-08-25T09:34:58.323Z,29.7
2018-08-25T09:35:48.938Z,29.9
2018-08-25T09:36:40.415Z,30.4
2018-08-25T09:37:28.797Z,30.8
2018-08-25T09:38:18.571Z,31.1
2018-08-25T09:39:08.927Z,30.5
2018-08-25T09:39:58.997Z,29.8
2018-08-25T09:40:48.756Z,29.6
2018-08-25T09:41:39.361Z,29.9
2018-08-25T09:42:29.180Z,29.8
2018-08-25T09:43:18.964Z,29.4
2018-08-25T09:44:08.754Z,29.2
2018-08-25T09:44:59.079Z,29.6
2018-08-25T09:45:49.688Z,30.1
2018-08-25T09:46:39.241Z,30.1
2018-08-25T09:47:28.997Z,30.3
2018-08-25T09:48:19.382Z,31
2018-08-25T09:49:09.709Z,31.7
2018-08-25T09:49:59.756Z,31.8
2018-08-25T09:50:50.098Z,31.2
2018-08-25T09:51:39.908Z,31
2018-08-25T09:52:29.985Z,31.1
2018-08-25T09:53:20.083Z,31.3
2018-08-25T09:54:10.075Z,30.2
2018-08-25T09:55:00.186Z,30.2
2018-08-25T09:55:49.946Z,30.8
2018-08-25T09:56:39.434Z,31.1
2018-08-25T09:57:30.341Z,30.6
2018-08-25T09:58:20.399Z,30.4
2018-08-25T09:59:10.775Z,30.9
2018-08-25T10:00:00.580Z,30.8
2018-08-25T10:00:50.608Z,30.4
2018-08-25T10:01:40.703Z,30.1
2018-08-25T10:02:30.736Z,30.3
2018-08-25T10:03:20.880Z,30.9
2018-08-25T10:04:10.620Z,31.7
2018-08-25T10:05:01.045Z,31.7
2018-08-25T10:05:51.041Z,31.9
2018-08-25T10:06:41.093Z,32.1
2018-08-25T10:07:31.163Z,32.3
2018-08-25T10:08:21.211Z,32.2
2018-08-25T10:09:10.998Z,32.2
2018-08-25T10:10:01.603Z,32.5
2018-08-25T10:10:51.881Z,31.9
2018-08-25T10:11:41.473Z,31.8
2018-08-25T10:12:31.543Z,31.6
2018-08-25T10:13:21.613Z,31.5
2018-08-25T10:14:11.673Z,31.8
2018-08-25T10:15:02.016Z,32.3
2018-08-25T10:15:51.517Z,32.8
2018-08-25T10:16:41.883Z,32.9
2018-08-25T10:17:31.951Z,33.2
2018-08-25T10:18:22.024Z,33.4
2018-08-25T10:19:12.055Z,33.4
2018-08-25T10:20:01.858Z,32.8
2018-08-25T10:20:52.175Z,32.1
2018-08-25T10:21:41.395Z,32.4
2018-08-25T10:22:32.317Z,32.8
2018-08-25T10:23:22.083Z,33.1
2018-08-25T10:24:12.194Z,33.5
2018-08-25T10:25:02.825Z,33.4
2018-08-25T10:25:52.586Z,32.6
2018-08-25T10:26:42.710Z,32.4
2018-08-25T10:27:32.430Z,32.1
2018-08-25T10:28:22.487Z,32.1
2018-08-25T10:29:12.857Z,32.9
2018-08-25T10:30:03.196Z,33.3
2018-08-25T10:30:52.702Z,32.9
2018-08-25T10:31:42.207Z,33
2018-08-25T10:32:32.518Z,33.1
2018-08-25T10:33:22.836Z,33.4
2018-08-25T10:34:12.969Z,32.8
2018-08-25T10:35:03.319Z,32.1
2018-08-25T10:35:53.673Z,31.5
2018-08-25T10:36:43.456Z,30.6
2018-08-25T10:37:32.931Z,30.5
2018-08-25T10:38:23.832Z,31.2
2018-08-25T10:39:13.632Z,32.1
2018-08-25T10:40:03.712Z,32.8
2018-08-25T10:40:53.200Z,33.2
2018-08-25T10:41:44.493Z,33.5
2018-08-25T10:42:33.629Z,33.6
2018-08-25T10:43:23.673Z,33.1
2018-08-25T10:44:14.061Z,32.4
2018-08-25T10:45:03.848Z,32.4
2018-08-25T10:45:53.873Z,32.9
2018-08-25T10:46:43.366Z,32.6
2018-08-25T10:47:33.998Z,32.6
2018-08-25T10:48:24.362Z,32.7
2018-08-25T10:49:14.212Z,32.6
2018-08-25T10:50:04.505Z,31.8
2018-08-25T10:50:54.533Z,32.3
2018-08-25T10:51:44.616Z,33.2
2018-08-25T10:52:34.717Z,33.3
2018-08-25T10:53:24.467Z,33.4
2018-08-25T10:54:14.844Z,33.8
2018-08-25T10:55:04.595Z,33.9
2018-08-25T10:55:54.960Z,34.4
2018-08-25T10:56:45.002Z,34.4
2018-08-25T10:57:35.082Z,34.4
2018-08-25T10:58:24.868Z,34.3
2018-08-25T10:59:15.187Z,34.3
2018-08-25T11:00:05.294Z,34.3
2018-08-25T11:00:56.966Z,34.4
2018-08-25T11:01:45.141Z,34.6
2018-08-25T11:02:35.186Z,34.8
2018-08-25T11:03:25.817Z,35.1
2018-08-25T11:04:15.588Z,34.8
2018-08-25T11:05:05.651Z,35
2018-08-25T11:05:55.779Z,34.6
2018-08-25T11:06:45.771Z,34.5
2018-08-25T11:07:35.828Z,34.2
2018-08-25T11:08:25.643Z,34.4
2018-08-25T11:09:16.009Z,34.6
2018-08-25T11:10:05.487Z,34.6
2018-08-25T11:10:55.561Z,34.6
2018-08-25T11:11:45.989Z,34.3
2018-08-25T11:12:35.973Z,34.2
2018-08-25T11:13:26.307Z,33.2
2018-08-25T11:14:16.395Z,33.3
2018-08-25T11:15:06.162Z,33.6
2018-08-25T11:15:56.226Z,33.9
2018-08-25T11:16:46.297Z,34.1
2018-08-25T11:17:36.627Z,34.3
2018-08-25T11:18:26.716Z,33.2
2018-08-25T11:19:16.778Z,32.6
2018-08-25T11:20:06.889Z,31.6
2018-08-25T11:20:56.629Z,31.3
2018-08-25T11:21:46.684Z,31.8
2018-08-25T11:22:36.818Z,32.6
2018-08-25T11:23:27.116Z,33.4
2018-08-25T11:24:16.011Z,33.4
2018-08-25T11:25:06.973Z,33.5
2018-08-25T11:25:57.313Z,32.4
2018-08-25T11:26:47.368Z,32.8
2018-08-25T11:27:37.425Z,33.6
2018-08-25T11:28:26.928Z,34.1
2018-08-25T11:29:18.177Z,34.3
2018-08-25T11:30:07.353Z,33.6
2018-08-25T11:30:57.121Z,33.3
2018-08-25T11:31:48.017Z,32.8
2018-08-25T11:32:37.520Z,32.8
2018-08-25T11:33:27.598Z,33.6
2018-08-25T11:34:17.956Z,34.4
2018-08-25T11:35:07.978Z,34.8
2018-08-25T11:35:57.798Z,35.1
2018-08-25T11:36:47.834Z,34.9
2018-08-25T11:37:38.942Z,34.4
2018-08-25T11:38:27.987Z,34
2018-08-25T11:39:18.087Z,33.9
2018-08-25T11:40:08.435Z,33.8
2018-08-25T11:40:58.787Z,33
2018-08-25T11:41:48.542Z,32.4
2018-08-25T11:42:38.317Z,32.6
2018-08-25T11:43:28.664Z,33.1
2018-08-25T11:44:18.149Z,33.1
2018-08-25T11:45:08.516Z,32.6
2018-08-25T11:45:58.856Z,32.7
2018-08-25T11:46:48.929Z,31.6
2018-08-25T11:47:38.735Z,31.3
2018-08-25T11:48:28.778Z,32.2
2018-08-25T11:49:18.289Z,32.3
2018-08-25T11:50:09.191Z,32.5
2018-08-25T11:50:59.547Z,32.8
2018-08-25T11:51:49.054Z,33
2018-08-25T11:52:39.412Z,33.2
2018-08-25T11:53:28.884Z,33.8
2018-08-25T11:54:19.524Z,33.3
2018-08-25T11:55:09.599Z,32.7
2018-08-25T11:55:59.964Z,31.8
2018-08-25T11:56:49.710Z,32.6
2018-08-25T11:57:39.489Z,32.9
2018-08-25T11:58:29.561Z,33.4
2018-08-25T11:59:19.336Z,33.8
2018-08-25T12:00:09.978Z,34.1
2018-08-25T12:01:00.054Z,34
2018-08-25T12:01:50.088Z,34.2
2018-08-25T12:02:39.888Z,34.6